sensor_id;sensor_type;location;lat;lon;timestamp;temperature;humidity
6357;DHT22;3211;53.452;-2.264;2022-12-07T00:01:05;2.00;99.90
6357;DHT22;3211;53.452;-2.264;2022-12-07T00:03:32;2.00;99.90
6357;DHT22;3211;53.452;-2.264;2022-12-07T00:06:00;2.00;99.90
6357;DHT22;3211;53.452;-2.264;2022-12-07T00:08:29;2.00;99.90
6357;DHT22;3211;53.452;-2.264;2022-12-07T00:11:00;2.00;99.90
6357;DHT22;3211;53.452;-2.264;2022-12-07T00:13:29;1.90;99.90
6357;DHT22;3211;53.452;-2.264;2022-12-07T00:15:56;1.90;99.90
6357;DHT22;3211;53.452;-2.264;2022-12-07T00:18:26;2.00;99.90
6357;DHT22;3211;53.452;-2.264;2022-12-07T00:20:53;2.00;99.90
6357;DHT22;3211;53.452;-2.264;2022-12-07T00:23:19;2.10;99.90
6357;DHT22;3211;53.452;-2.264;2022-12-07T00:25:48;2.00;99.90
6357;DHT22;3211;53.452;-2.264;2022-12-07T00:28:15;2.10;99.90
6357;DHT22;3211;53.452;-2.264;2022-12-07T00:30:42;2.10;99.90
6357;DHT22;3211;53.452;-2.264;2022-12-07T00:33:08;2.20;99.90
6357;DHT22;3211;53.452;-2.264;2022-12-07T00:35:35;2.10;99.90
6357;DHT22;3211;53.452;-2.264;2022-12-07T00:40:29;2.00;99.90
6357;DHT22;3211;53.452;-2.264;2022-12-07T00:42:58;1.80;99.90
6357;DHT22;3211;53.452;-2.264;2022-12-07T00:45:25;1.80;99.90
6357;DHT22;3211;53.452;-2.264;2022-12-07T00:47:52;1.80;99.90
6357;DHT22;3211;53.452;-2.264;2022-12-07T00:50:18;1.80;99.90
6357;DHT22;3211;53.452;-2.264;2022-12-07T00:52:45;1.80;99.90
6357;DHT22;3211;53.452;-2.264;2022-12-07T00:55:12;1.70;99.90
6357;DHT22;3211;53.452;-2.264;2022-12-07T00:57:39;1.80;99.90
6357;DHT22;3211;53.452;-2.264;2022-12-07T01:00:09;1.80;99.90
6357;DHT22;3211;53.452;-2.264;2022-12-07T01:02:36;1.80;99.90
6357;DHT22;3211;53.452;-2.264;2022-12-07T01:05:04;1.80;99.90
6357;DHT22;3211;53.452;-2.264;2022-12-07T01:07:31;1.70;99.90
6357;DHT22;3211;53.452;-2.264;2022-12-07T01:09:58;1.70;99.90
6357;DHT22;3211;53.452;-2.264;2022-12-07T01:12:25;1.70;99.90
6357;DHT22;3211;53.452;-2.264;2022-12-07T01:14:52;2.00;99.90
6357;DHT22;3211;53.452;-2.264;2022-12-07T01:17:20;2.00;99.90
6357;DHT22;3211;53.452;-2.264;2022-12-07T01:19:47;2.10;99.90
6357;DHT22;3211;53.452;-2.264;2022-12-07T01:22:14;2.00;99.90
6357;DHT22;3211;53.452;-2.264;2022-12-07T01:24:41;2.00;99.90
6357;DHT22;3211;53.452;-2.264;2022-12-07T01:27:07;2.00;99.90
6357;DHT22;3211;53.452;-2.264;2022-12-07T01:29:35;1.90;99.90
6357;DHT22;3211;53.452;-2.264;2022-12-07T01:32:02;2.00;99.90
6357;DHT22;3211;53.452;-2.264;2022-12-07T01:34:31;2.00;99.90
6357;DHT22;3211;53.452;-2.264;2022-12-07T01:36:58;2.10;99.90
6357;DHT22;3211;53.452;-2.264;2022-12-07T01:39:25;2.00;99.90
6357;DHT22;3211;53.452;-2.264;2022-12-07T01:41:52;2.00;99.90
6357;DHT22;3211;53.452;-2.264;2022-12-07T01:44:22;2.10;99.90
6357;DHT22;3211;53.452;-2.264;2022-12-07T01:46:50;2.10;99.90
6357;DHT22;3211;53.452;-2.264;2022-12-07T01:49:27;2.00;99.90
6357;DHT22;3211;53.452;-2.264;2022-12-07T01:52:01;2.00;99.90
6357;DHT22;3211;53.452;-2.264;2022-12-07T01:54:30;2.00;99.90
6357;DHT22;3211;53.452;-2.264;2022-12-07T01:56:58;1.80;99.90
6357;DHT22;3211;53.452;-2.264;2022-12-07T01:59:26;1.80;99.90
6357;DHT22;3211;53.452;-2.264;2022-12-07T02:01:54;1.80;99.90
6357;DHT22;3211;53.452;-2.264;2022-12-07T02:04:22;1.70;99.90
6357;DHT22;3211;53.452;-2.264;2022-12-07T02:06:51;1.60;99.90
6357;DHT22;3211;53.452;-2.264;2022-12-07T02:09:21;1.50;99.90
6357;DHT22;3211;53.452;-2.264;2022-12-07T02:11:48;1.50;99.90
6357;DHT22;3211;53.452;-2.264;2022-12-07T02:14:16;1.40;99.90
6357;DHT22;3211;53.452;-2.264;2022-12-07T02:16:50;1.40;99.90
6357;DHT22;3211;53.452;-2.264;2022-12-07T02:25:29;1.20;99.90
6357;DHT22;3211;53.452;-2.264;2022-12-07T02:28:05;1.20;99.90
6357;DHT22;3211;53.452;-2.264;2022-12-07T02:30:37;1.20;99.90
6357;DHT22;3211;53.452;-2.264;2022-12-07T02:33:13;1.20;99.90
6357;DHT22;3211;53.452;-2.264;2022-12-07T02:35:43;1.20;99.90
6357;DHT22;3211;53.452;-2.264;2022-12-07T02:38:15;1.20;99.90
6357;DHT22;3211;53.452;-2.264;2022-12-07T02:40:46;1.10;99.90
6357;DHT22;3211;53.452;-2.264;2022-12-07T02:43:19;1.00;99.90
6357;DHT22;3211;53.452;-2.264;2022-12-07T02:45:48;1.00;99.90
6357;DHT22;3211;53.452;-2.264;2022-12-07T02:48:17;0.90;99.90
6357;DHT22;3211;53.452;-2.264;2022-12-07T02:50:48;0.90;99.90
6357;DHT22;3211;53.452;-2.264;2022-12-07T02:53:34;0.90;99.90
6357;DHT22;3211;53.452;-2.264;2022-12-07T02:56:07;0.90;99.90
6357;DHT22;3211;53.452;-2.264;2022-12-07T02:58:43;1.10;99.90
6357;DHT22;3211;53.452;-2.264;2022-12-07T03:01:24;1.00;99.90
6357;DHT22;3211;53.452;-2.264;2022-12-07T03:04:02;0.90;99.90
6357;DHT22;3211;53.452;-2.264;2022-12-07T03:06:38;0.90;99.90
6357;DHT22;3211;53.452;-2.264;2022-12-07T03:09:12;0.90;99.90
6357;DHT22;3211;53.452;-2.264;2022-12-07T03:11:46;0.80;99.90
6357;DHT22;3211;53.452;-2.264;2022-12-07T03:14:17;0.80;99.90
6357;DHT22;3211;53.452;-2.264;2022-12-07T03:16:52;0.80;99.90
6357;DHT22;3211;53.452;-2.264;2022-12-07T03:19:21;0.80;99.90
6357;DHT22;3211;53.452;-2.264;2022-12-07T03:21:53;0.80;99.90
6357;DHT22;3211;53.452;-2.264;2022-12-07T03:24:26;0.80;99.90
6357;DHT22;3211;53.452;-2.264;2022-12-07T03:26:58;0.80;99.90
6357;DHT22;3211;53.452;-2.264;2022-12-07T03:29:29;0.80;99.90
6357;DHT22;3211;53.452;-2.264;2022-12-07T03:32:02;0.80;99.90
6357;DHT22;3211;53.452;-2.264;2022-12-07T03:34:35;0.80;99.90
6357;DHT22;3211;53.452;-2.264;2022-12-07T03:37:05;0.80;99.90
6357;DHT22;3211;53.452;-2.264;2022-12-07T03:39:37;0.80;99.90
6357;DHT22;3211;53.452;-2.264;2022-12-07T03:42:07;0.70;99.90
6357;DHT22;3211;53.452;-2.264;2022-12-07T03:44:35;0.70;99.90
6357;DHT22;3211;53.452;-2.264;2022-12-07T03:47:05;0.80;99.90
6357;DHT22;3211;53.452;-2.264;2022-12-07T03:49:40;0.80;99.90
6357;DHT22;3211;53.452;-2.264;2022-12-07T03:52:12;0.70;99.90
6357;DHT22;3211;53.452;-2.264;2022-12-07T03:54:47;0.70;99.90
6357;DHT22;3211;53.452;-2.264;2022-12-07T03:57:17;0.70;99.90
6357;DHT22;3211;53.452;-2.264;2022-12-07T03:59:45;0.60;99.90
6357;DHT22;3211;53.452;-2.264;2022-12-07T04:02:15;0.60;99.90
6357;DHT22;3211;53.452;-2.264;2022-12-07T04:04:43;0.60;99.90
6357;DHT22;3211;53.452;-2.264;2022-12-07T04:07:10;0.50;99.90
6357;DHT22;3211;53.452;-2.264;2022-12-07T04:09:38;0.60;99.90
6357;DHT22;3211;53.452;-2.264;2022-12-07T04:12:05;0.50;99.90
6357;DHT22;3211;53.452;-2.264;2022-12-07T04:14:32;0.50;99.90
6357;DHT22;3211;53.452;-2.264;2022-12-07T04:16:59;0.40;99.90
6357;DHT22;3211;53.452;-2.264;2022-12-07T04:19:30;0.50;99.90
6357;DHT22;3211;53.452;-2.264;2022-12-07T04:21:58;0.40;99.90
6357;DHT22;3211;53.452;-2.264;2022-12-07T04:24:26;0.40;99.90
6357;DHT22;3211;53.452;-2.264;2022-12-07T04:26:53;0.30;99.90
6357;DHT22;3211;53.452;-2.264;2022-12-07T04:29:20;0.30;99.90
6357;DHT22;3211;53.452;-2.264;2022-12-07T04:31:48;0.30;99.90
6357;DHT22;3211;53.452;-2.264;2022-12-07T04:34:15;0.30;99.90
6357;DHT22;3211;53.452;-2.264;2022-12-07T04:36:44;0.30;99.90
6357;DHT22;3211;53.452;-2.264;2022-12-07T04:39:18;0.40;99.90
6357;DHT22;3211;53.452;-2.264;2022-12-07T04:41:45;0.50;99.90
6357;DHT22;3211;53.452;-2.264;2022-12-07T04:44:13;0.40;99.90
6357;DHT22;3211;53.452;-2.264;2022-12-07T04:46:41;0.30;99.90
6357;DHT22;3211;53.452;-2.264;2022-12-07T04:49:08;0.30;99.90
6357;DHT22;3211;53.452;-2.264;2022-12-07T04:51:35;0.30;99.90
6357;DHT22;3211;53.452;-2.264;2022-12-07T04:54:04;0.30;99.90
6357;DHT22;3211;53.452;-2.264;2022-12-07T04:56:31;0.30;99.90
6357;DHT22;3211;53.452;-2.264;2022-12-07T04:59:00;0.20;99.90
6357;DHT22;3211;53.452;-2.264;2022-12-07T05:01:27;0.20;99.90
6357;DHT22;3211;53.452;-2.264;2022-12-07T05:03:54;0.20;99.90
6357;DHT22;3211;53.452;-2.264;2022-12-07T05:06:21;0.30;99.90
6357;DHT22;3211;53.452;-2.264;2022-12-07T05:08:48;0.30;99.90
6357;DHT22;3211;53.452;-2.264;2022-12-07T05:11:17;0.30;99.90
6357;DHT22;3211;53.452;-2.264;2022-12-07T05:13:58;0.30;99.90
6357;DHT22;3211;53.452;-2.264;2022-12-07T05:16:25;0.20;99.90
6357;DHT22;3211;53.452;-2.264;2022-12-07T05:18:52;0.20;99.90
6357;DHT22;3211;53.452;-2.264;2022-12-07T05:21:19;0.20;99.90
6357;DHT22;3211;53.452;-2.264;2022-12-07T05:23:46;0.20;99.90
6357;DHT22;3211;53.452;-2.264;2022-12-07T05:26:13;0.20;99.90
6357;DHT22;3211;53.452;-2.264;2022-12-07T05:28:41;0.20;99.90
6357;DHT22;3211;53.452;-2.264;2022-12-07T05:31:08;0.20;99.90
6357;DHT22;3211;53.452;-2.264;2022-12-07T05:33:35;0.20;99.90
6357;DHT22;3211;53.452;-2.264;2022-12-07T05:36:03;0.20;99.90
6357;DHT22;3211;53.452;-2.264;2022-12-07T05:38:31;0.20;99.90
6357;DHT22;3211;53.452;-2.264;2022-12-07T05:41:01;0.20;99.90
6357;DHT22;3211;53.452;-2.264;2022-12-07T05:43:28;0.10;99.90
6357;DHT22;3211;53.452;-2.264;2022-12-07T05:45:56;0.10;99.90
6357;DHT22;3211;53.452;-2.264;2022-12-07T05:48:24;0.20;99.90
6357;DHT22;3211;53.452;-2.264;2022-12-07T05:50:51;0.10;99.90
6357;DHT22;3211;53.452;-2.264;2022-12-07T05:53:19;0.20;99.90
6357;DHT22;3211;53.452;-2.264;2022-12-07T05:55:46;0.20;99.90
6357;DHT22;3211;53.452;-2.264;2022-12-07T05:58:13;0.20;99.90
6357;DHT22;3211;53.452;-2.264;2022-12-07T06:00:58;0.20;99.90
6357;DHT22;3211;53.452;-2.264;2022-12-07T06:03:25;0.20;99.90
6357;DHT22;3211;53.452;-2.264;2022-12-07T06:05:52;0.20;99.90
6357;DHT22;3211;53.452;-2.264;2022-12-07T06:08:19;0.20;99.90
6357;DHT22;3211;53.452;-2.264;2022-12-07T06:10:47;0.30;99.90
6357;DHT22;3211;53.452;-2.264;2022-12-07T06:13:36;0.30;99.90
6357;DHT22;3211;53.452;-2.264;2022-12-07T06:16:04;0.30;99.90
6357;DHT22;3211;53.452;-2.264;2022-12-07T06:18:31;0.30;99.90
6357;DHT22;3211;53.452;-2.264;2022-12-07T06:20:58;0.30;99.90
6357;DHT22;3211;53.452;-2.264;2022-12-07T06:23:26;0.30;99.90
6357;DHT22;3211;53.452;-2.264;2022-12-07T06:25:53;0.20;99.90
6357;DHT22;3211;53.452;-2.264;2022-12-07T06:28:19;0.30;99.90
6357;DHT22;3211;53.452;-2.264;2022-12-07T06:30:46;0.30;99.90
6357;DHT22;3211;53.452;-2.264;2022-12-07T06:33:15;0.40;99.90
6357;DHT22;3211;53.452;-2.264;2022-12-07T06:35:42;0.40;99.90
6357;DHT22;3211;53.452;-2.264;2022-12-07T06:38:08;0.40;99.90
6357;DHT22;3211;53.452;-2.264;2022-12-07T06:40:35;0.30;99.90
6357;DHT22;3211;53.452;-2.264;2022-12-07T06:43:02;0.30;99.90
6357;DHT22;3211;53.452;-2.264;2022-12-07T06:45:29;0.30;99.90
6357;DHT22;3211;53.452;-2.264;2022-12-07T06:47:56;0.30;99.90
6357;DHT22;3211;53.452;-2.264;2022-12-07T06:50:24;0.30;99.90
6357;DHT22;3211;53.452;-2.264;2022-12-07T06:52:52;0.30;99.90
6357;DHT22;3211;53.452;-2.264;2022-12-07T06:55:18;0.30;99.90
6357;DHT22;3211;53.452;-2.264;2022-12-07T06:57:45;0.20;99.90
6357;DHT22;3211;53.452;-2.264;2022-12-07T07:00:14;0.20;99.90
6357;DHT22;3211;53.452;-2.264;2022-12-07T07:02:41;0.20;99.90
6357;DHT22;3211;53.452;-2.264;2022-12-07T07:05:08;0.20;99.90
6357;DHT22;3211;53.452;-2.264;2022-12-07T07:07:37;0.20;99.90
6357;DHT22;3211;53.452;-2.264;2022-12-07T07:10:05;0.20;99.90
6357;DHT22;3211;53.452;-2.264;2022-12-07T07:12:32;0.30;99.90
6357;DHT22;3211;53.452;-2.264;2022-12-07T07:14:59;0.30;99.90
6357;DHT22;3211;53.452;-2.264;2022-12-07T07:17:26;0.30;99.90
6357;DHT22;3211;53.452;-2.264;2022-12-07T07:19:52;0.40;99.90
6357;DHT22;3211;53.452;-2.264;2022-12-07T07:22:19;0.50;99.90
6357;DHT22;3211;53.452;-2.264;2022-12-07T07:24:48;0.50;99.90
6357;DHT22;3211;53.452;-2.264;2022-12-07T07:27:15;0.60;99.90
6357;DHT22;3211;53.452;-2.264;2022-12-07T07:29:42;0.60;99.90
6357;DHT22;3211;53.452;-2.264;2022-12-07T07:32:09;0.60;99.90
6357;DHT22;3211;53.452;-2.264;2022-12-07T07:34:36;0.50;99.90
6357;DHT22;3211;53.452;-2.264;2022-12-07T07:37:03;0.50;99.90
6357;DHT22;3211;53.452;-2.264;2022-12-07T07:39:31;0.50;99.90
6357;DHT22;3211;53.452;-2.264;2022-12-07T07:41:59;0.50;99.90
6357;DHT22;3211;53.452;-2.264;2022-12-07T07:44:26;0.50;99.90
6357;DHT22;3211;53.452;-2.264;2022-12-07T07:46:54;0.50;99.90
6357;DHT22;3211;53.452;-2.264;2022-12-07T07:49:21;0.50;99.90
6357;DHT22;3211;53.452;-2.264;2022-12-07T07:51:48;0.50;99.90
6357;DHT22;3211;53.452;-2.264;2022-12-07T07:54:15;0.50;99.90
6357;DHT22;3211;53.452;-2.264;2022-12-07T07:56:42;0.50;99.90
6357;DHT22;3211;53.452;-2.264;2022-12-07T07:59:10;0.50;99.90
6357;DHT22;3211;53.452;-2.264;2022-12-07T08:01:37;0.40;99.90
6357;DHT22;3211;53.452;-2.264;2022-12-07T08:04:04;0.40;99.90
6357;DHT22;3211;53.452;-2.264;2022-12-07T08:06:31;0.50;99.90
6357;DHT22;3211;53.452;-2.264;2022-12-07T08:08:58;0.50;99.90
6357;DHT22;3211;53.452;-2.264;2022-12-07T08:11:26;0.50;99.90
6357;DHT22;3211;53.452;-2.264;2022-12-07T08:13:53;0.50;99.90
6357;DHT22;3211;53.452;-2.264;2022-12-07T08:16:21;0.60;99.90
6357;DHT22;3211;53.452;-2.264;2022-12-07T08:18:48;0.50;99.90
6357;DHT22;3211;53.452;-2.264;2022-12-07T08:21:15;0.50;99.90
6357;DHT22;3211;53.452;-2.264;2022-12-07T08:23:42;0.40;99.90
6357;DHT22;3211;53.452;-2.264;2022-12-07T08:26:11;0.40;99.90
6357;DHT22;3211;53.452;-2.264;2022-12-07T08:28:38;0.50;99.90
6357;DHT22;3211;53.452;-2.264;2022-12-07T08:31:07;0.60;99.90
6357;DHT22;3211;53.452;-2.264;2022-12-07T08:33:36;0.50;99.90
6357;DHT22;3211;53.452;-2.264;2022-12-07T08:36:05;0.40;99.90
6357;DHT22;3211;53.452;-2.264;2022-12-07T08:38:51;0.30;99.90
6357;DHT22;3211;53.452;-2.264;2022-12-07T08:41:37;0.30;99.90
6357;DHT22;3211;53.452;-2.264;2022-12-07T08:44:04;0.30;99.90
6357;DHT22;3211;53.452;-2.264;2022-12-07T08:46:33;0.30;99.90
6357;DHT22;3211;53.452;-2.264;2022-12-07T08:49:06;0.30;99.90
6357;DHT22;3211;53.452;-2.264;2022-12-07T08:51:35;0.20;99.90
6357;DHT22;3211;53.452;-2.264;2022-12-07T08:54:06;0.10;99.90
6357;DHT22;3211;53.452;-2.264;2022-12-07T08:56:33;0.30;99.90
6357;DHT22;3211;53.452;-2.264;2022-12-07T08:59:01;0.30;99.90
6357;DHT22;3211;53.452;-2.264;2022-12-07T09:01:28;0.20;99.90
6357;DHT22;3211;53.452;-2.264;2022-12-07T09:03:55;0.10;99.90
6357;DHT22;3211;53.452;-2.264;2022-12-07T09:06:23;0.20;99.90
6357;DHT22;3211;53.452;-2.264;2022-12-07T09:08:54;0.30;99.90
6357;DHT22;3211;53.452;-2.264;2022-12-07T09:11:22;0.30;99.90
6357;DHT22;3211;53.452;-2.264;2022-12-07T09:13:48;0.30;99.90
6357;DHT22;3211;53.452;-2.264;2022-12-07T09:16:16;0.20;99.90
6357;DHT22;3211;53.452;-2.264;2022-12-07T09:18:43;0.20;99.90
6357;DHT22;3211;53.452;-2.264;2022-12-07T09:21:10;0.30;99.90
6357;DHT22;3211;53.452;-2.264;2022-12-07T09:23:38;0.30;99.90
6357;DHT22;3211;53.452;-2.264;2022-12-07T09:26:07;0.40;99.90
6357;DHT22;3211;53.452;-2.264;2022-12-07T09:28:34;0.50;99.90
6357;DHT22;3211;53.452;-2.264;2022-12-07T09:31:03;0.50;99.90
6357;DHT22;3211;53.452;-2.264;2022-12-07T09:33:30;0.40;99.90
6357;DHT22;3211;53.452;-2.264;2022-12-07T09:35:58;0.50;99.90
6357;DHT22;3211;53.452;-2.264;2022-12-07T09:38:25;0.80;99.90
6357;DHT22;3211;53.452;-2.264;2022-12-07T09:40:54;0.70;99.90
6357;DHT22;3211;53.452;-2.264;2022-12-07T09:43:23;0.80;99.90
6357;DHT22;3211;53.452;-2.264;2022-12-07T09:45:52;0.80;99.90
6357;DHT22;3211;53.452;-2.264;2022-12-07T09:48:21;0.80;99.90
6357;DHT22;3211;53.452;-2.264;2022-12-07T09:50:50;0.90;99.90
6357;DHT22;3211;53.452;-2.264;2022-12-07T09:53:27;1.00;99.90
6357;DHT22;3211;53.452;-2.264;2022-12-07T09:55:56;1.00;99.90
6357;DHT22;3211;53.452;-2.264;2022-12-07T09:58:25;1.10;99.90
6357;DHT22;3211;53.452;-2.264;2022-12-07T10:00:54;1.20;99.90
6357;DHT22;3211;53.452;-2.264;2022-12-07T10:03:22;1.30;99.90
6357;DHT22;3211;53.452;-2.264;2022-12-07T10:05:51;1.30;99.90
6357;DHT22;3211;53.452;-2.264;2022-12-07T10:08:18;1.40;99.90
6357;DHT22;3211;53.452;-2.264;2022-12-07T10:10:50;1.40;99.90
6357;DHT22;3211;53.452;-2.264;2022-12-07T10:13:20;1.60;99.90
6357;DHT22;3211;53.452;-2.264;2022-12-07T10:15:50;1.70;99.90
6357;DHT22;3211;53.452;-2.264;2022-12-07T10:18:26;1.70;99.90
6357;DHT22;3211;53.452;-2.264;2022-12-07T10:21:03;1.80;99.90
6357;DHT22;3211;53.452;-2.264;2022-12-07T10:23:33;1.90;99.90
6357;DHT22;3211;53.452;-2.264;2022-12-07T10:26:20;1.90;99.90
6357;DHT22;3211;53.452;-2.264;2022-12-07T10:28:49;1.90;99.90
6357;DHT22;3211;53.452;-2.264;2022-12-07T10:31:18;2.00;99.90
6357;DHT22;3211;53.452;-2.264;2022-12-07T10:33:51;2.20;99.90
6357;DHT22;3211;53.452;-2.264;2022-12-07T10:36:23;2.30;99.90
6357;DHT22;3211;53.452;-2.264;2022-12-07T10:38:52;2.30;99.90
6357;DHT22;3211;53.452;-2.264;2022-12-07T10:41:19;2.50;99.90
6357;DHT22;3211;53.452;-2.264;2022-12-07T10:43:53;2.60;99.90
6357;DHT22;3211;53.452;-2.264;2022-12-07T10:46:56;2.60;99.90
6357;DHT22;3211;53.452;-2.264;2022-12-07T10:49:49;2.70;99.90
6357;DHT22;3211;53.452;-2.264;2022-12-07T10:52:28;2.80;99.90
6357;DHT22;3211;53.452;-2.264;2022-12-07T10:55:13;2.90;99.90
6357;DHT22;3211;53.452;-2.264;2022-12-07T10:57:49;3.00;99.90
6357;DHT22;3211;53.452;-2.264;2022-12-07T11:00:23;3.10;99.90
6357;DHT22;3211;53.452;-2.264;2022-12-07T11:03:10;3.20;99.90
6357;DHT22;3211;53.452;-2.264;2022-12-07T11:05:49;3.30;99.90
6357;DHT22;3211;53.452;-2.264;2022-12-07T11:08:33;3.30;99.90
6357;DHT22;3211;53.452;-2.264;2022-12-07T11:11:06;3.40;99.90
6357;DHT22;3211;53.452;-2.264;2022-12-07T11:13:40;3.50;99.90
6357;DHT22;3211;53.452;-2.264;2022-12-07T11:16:30;3.60;99.90
6357;DHT22;3211;53.452;-2.264;2022-12-07T11:19:06;3.90;99.90
6357;DHT22;3211;53.452;-2.264;2022-12-07T11:21:45;3.80;99.90
6357;DHT22;3211;53.452;-2.264;2022-12-07T11:24:16;3.70;99.90
6357;DHT22;3211;53.452;-2.264;2022-12-07T11:27:04;3.90;99.90
6357;DHT22;3211;53.452;-2.264;2022-12-07T11:29:49;3.80;99.90
6357;DHT22;3211;53.452;-2.264;2022-12-07T11:32:27;3.80;99.90
6357;DHT22;3211;53.452;-2.264;2022-12-07T11:35:07;3.80;99.90
6357;DHT22;3211;53.452;-2.264;2022-12-07T11:37:37;3.80;99.90
6357;DHT22;3211;53.452;-2.264;2022-12-07T11:40:15;3.90;99.90
6357;DHT22;3211;53.452;-2.264;2022-12-07T11:42:49;4.20;99.90
6357;DHT22;3211;53.452;-2.264;2022-12-07T11:45:22;4.20;99.90
6357;DHT22;3211;53.452;-2.264;2022-12-07T11:47:55;4.40;99.90
6357;DHT22;3211;53.452;-2.264;2022-12-07T11:50:30;4.40;99.90
6357;DHT22;3211;53.452;-2.264;2022-12-07T11:53:01;4.40;99.90
6357;DHT22;3211;53.452;-2.264;2022-12-07T11:55:37;4.80;99.90
6357;DHT22;3211;53.452;-2.264;2022-12-07T11:58:23;4.60;99.90
6357;DHT22;3211;53.452;-2.264;2022-12-07T12:01:08;4.60;99.90
6357;DHT22;3211;53.452;-2.264;2022-12-07T12:03:43;4.80;99.90
6357;DHT22;3211;53.452;-2.264;2022-12-07T12:06:11;5.00;99.90
6357;DHT22;3211;53.452;-2.264;2022-12-07T12:08:42;4.90;99.90
6357;DHT22;3211;53.452;-2.264;2022-12-07T12:11:21;4.90;99.90
6357;DHT22;3211;53.452;-2.264;2022-12-07T12:14:37;5.00;99.90
6357;DHT22;3211;53.452;-2.264;2022-12-07T12:17:22;5.10;99.90
6357;DHT22;3211;53.452;-2.264;2022-12-07T12:20:05;5.10;99.90
6357;DHT22;3211;53.452;-2.264;2022-12-07T12:22:40;5.20;99.90
6357;DHT22;3211;53.452;-2.264;2022-12-07T12:25:22;5.30;99.90
6357;DHT22;3211;53.452;-2.264;2022-12-07T12:27:51;5.40;99.90
6357;DHT22;3211;53.452;-2.264;2022-12-07T12:30:33;5.30;99.90
6357;DHT22;3211;53.452;-2.264;2022-12-07T12:33:06;5.40;99.90
6357;DHT22;3211;53.452;-2.264;2022-12-07T12:35:41;5.50;99.90
6357;DHT22;3211;53.452;-2.264;2022-12-07T12:38:47;5.80;99.90
6357;DHT22;3211;53.452;-2.264;2022-12-07T12:47:55;5.70;99.90
6357;DHT22;3211;53.452;-2.264;2022-12-07T12:50:24;5.80;99.90
6357;DHT22;3211;53.452;-2.264;2022-12-07T12:53:12;5.70;99.90
6357;DHT22;3211;53.452;-2.264;2022-12-07T12:58:40;5.90;99.90
6357;DHT22;3211;53.452;-2.264;2022-12-07T13:01:38;5.60;99.90
6357;DHT22;3211;53.452;-2.264;2022-12-07T13:07:12;5.50;99.90
6357;DHT22;3211;53.452;-2.264;2022-12-07T13:09:44;5.40;99.90
6357;DHT22;3211;53.452;-2.264;2022-12-07T13:12:14;5.40;99.90
6357;DHT22;3211;53.452;-2.264;2022-12-07T13:17:54;5.50;99.90
6357;DHT22;3211;53.452;-2.264;2022-12-07T13:20:48;5.40;99.90
6357;DHT22;3211;53.452;-2.264;2022-12-07T13:23:25;5.30;99.90
6357;DHT22;3211;53.452;-2.264;2022-12-07T13:26:02;5.40;99.90
6357;DHT22;3211;53.452;-2.264;2022-12-07T13:28:35;5.40;99.90
6357;DHT22;3211;53.452;-2.264;2022-12-07T13:31:23;5.30;99.90
6357;DHT22;3211;53.452;-2.264;2022-12-07T13:33:50;5.20;99.90
6357;DHT22;3211;53.452;-2.264;2022-12-07T13:36:22;5.30;99.90
6357;DHT22;3211;53.452;-2.264;2022-12-07T13:38:52;5.50;99.90
6357;DHT22;3211;53.452;-2.264;2022-12-07T13:41:22;5.60;99.90
6357;DHT22;3211;53.452;-2.264;2022-12-07T13:43:53;5.50;99.90
6357;DHT22;3211;53.452;-2.264;2022-12-07T13:46:25;5.80;99.90
6357;DHT22;3211;53.452;-2.264;2022-12-07T13:48:53;5.80;99.90
6357;DHT22;3211;53.452;-2.264;2022-12-07T13:51:24;5.60;99.90
6357;DHT22;3211;53.452;-2.264;2022-12-07T13:53:53;5.90;99.90
6357;DHT22;3211;53.452;-2.264;2022-12-07T13:56:26;6.00;99.90
6357;DHT22;3211;53.452;-2.264;2022-12-07T13:58:55;5.70;99.90
6357;DHT22;3211;53.452;-2.264;2022-12-07T14:01:22;5.50;99.90
6357;DHT22;3211;53.452;-2.264;2022-12-07T14:03:49;5.30;99.90
6357;DHT22;3211;53.452;-2.264;2022-12-07T14:06:23;5.20;99.90
6357;DHT22;3211;53.452;-2.264;2022-12-07T14:09:16;5.10;99.90
6357;DHT22;3211;53.452;-2.264;2022-12-07T14:11:48;5.00;99.90
6357;DHT22;3211;53.452;-2.264;2022-12-07T14:14:18;5.10;99.90
6357;DHT22;3211;53.452;-2.264;2022-12-07T14:16:59;5.30;99.90
6357;DHT22;3211;53.452;-2.264;2022-12-07T14:19:48;5.20;99.90
6357;DHT22;3211;53.452;-2.264;2022-12-07T14:22:28;5.40;99.90
6357;DHT22;3211;53.452;-2.264;2022-12-07T14:25:00;5.30;99.90
6357;DHT22;3211;53.452;-2.264;2022-12-07T14:27:32;5.40;99.90
6357;DHT22;3211;53.452;-2.264;2022-12-07T14:30:00;5.30;99.90
6357;DHT22;3211;53.452;-2.264;2022-12-07T14:32:29;5.20;99.90
6357;DHT22;3211;53.452;-2.264;2022-12-07T14:34:58;5.00;99.90
6357;DHT22;3211;53.452;-2.264;2022-12-07T14:37:26;5.20;99.90
6357;DHT22;3211;53.452;-2.264;2022-12-07T14:39:53;5.00;99.90
6357;DHT22;3211;53.452;-2.264;2022-12-07T14:42:20;5.00;99.90
6357;DHT22;3211;53.452;-2.264;2022-12-07T14:44:49;5.10;99.90
6357;DHT22;3211;53.452;-2.264;2022-12-07T14:47:16;5.00;99.90
6357;DHT22;3211;53.452;-2.264;2022-12-07T14:49:43;5.00;99.90
6357;DHT22;3211;53.452;-2.264;2022-12-07T14:52:14;4.90;99.90
6357;DHT22;3211;53.452;-2.264;2022-12-07T14:54:42;4.90;99.90
6357;DHT22;3211;53.452;-2.264;2022-12-07T14:57:10;4.90;99.90
6357;DHT22;3211;53.452;-2.264;2022-12-07T14:59:37;4.80;99.90
6357;DHT22;3211;53.452;-2.264;2022-12-07T15:02:06;4.80;99.90
6357;DHT22;3211;53.452;-2.264;2022-12-07T15:04:33;4.80;99.90
6357;DHT22;3211;53.452;-2.264;2022-12-07T15:07:02;4.80;99.90
6357;DHT22;3211;53.452;-2.264;2022-12-07T15:09:29;4.60;99.90
6357;DHT22;3211;53.452;-2.264;2022-12-07T15:11:56;4.60;99.90
6357;DHT22;3211;53.452;-2.264;2022-12-07T15:14:23;4.70;99.90
6357;DHT22;3211;53.452;-2.264;2022-12-07T15:16:50;4.60;99.90
6357;DHT22;3211;53.452;-2.264;2022-12-07T15:19:20;4.60;99.90
6357;DHT22;3211;53.452;-2.264;2022-12-07T15:21:51;4.50;99.90
6357;DHT22;3211;53.452;-2.264;2022-12-07T15:24:18;4.60;99.90
6357;DHT22;3211;53.452;-2.264;2022-12-07T15:26:46;4.70;99.90
6357;DHT22;3211;53.452;-2.264;2022-12-07T15:29:13;4.60;99.90
6357;DHT22;3211;53.452;-2.264;2022-12-07T15:31:42;4.60;99.90
6357;DHT22;3211;53.452;-2.264;2022-12-07T15:34:09;4.60;99.90
6357;DHT22;3211;53.452;-2.264;2022-12-07T15:36:37;4.60;99.90
6357;DHT22;3211;53.452;-2.264;2022-12-07T15:39:04;4.50;99.90
6357;DHT22;3211;53.452;-2.264;2022-12-07T15:41:31;4.40;99.90
6357;DHT22;3211;53.452;-2.264;2022-12-07T15:43:58;4.40;99.90
6357;DHT22;3211;53.452;-2.264;2022-12-07T15:46:42;4.30;99.90
6357;DHT22;3211;53.452;-2.264;2022-12-07T15:49:12;4.20;99.90
6357;DHT22;3211;53.452;-2.264;2022-12-07T15:51:41;4.20;99.90
6357;DHT22;3211;53.452;-2.264;2022-12-07T15:54:13;4.10;99.90
6357;DHT22;3211;53.452;-2.264;2022-12-07T15:56:40;3.90;99.90
6357;DHT22;3211;53.452;-2.264;2022-12-07T15:59:07;3.70;99.90
6357;DHT22;3211;53.452;-2.264;2022-12-07T16:01:34;3.60;99.90
6357;DHT22;3211;53.452;-2.264;2022-12-07T16:04:00;3.50;99.90
6357;DHT22;3211;53.452;-2.264;2022-12-07T16:06:27;3.40;99.90
6357;DHT22;3211;53.452;-2.264;2022-12-07T16:08:56;3.30;99.90
6357;DHT22;3211;53.452;-2.264;2022-12-07T16:11:23;3.40;99.90
6357;DHT22;3211;53.452;-2.264;2022-12-07T16:13:50;3.40;99.90
6357;DHT22;3211;53.452;-2.264;2022-12-07T16:16:18;3.30;99.90
6357;DHT22;3211;53.452;-2.264;2022-12-07T16:18:46;3.50;99.90
6357;DHT22;3211;53.452;-2.264;2022-12-07T16:21:14;3.50;99.90
6357;DHT22;3211;53.452;-2.264;2022-12-07T16:23:41;3.50;99.90
6357;DHT22;3211;53.452;-2.264;2022-12-07T16:26:13;3.50;99.90
6357;DHT22;3211;53.452;-2.264;2022-12-07T16:28:40;3.40;99.90
6357;DHT22;3211;53.452;-2.264;2022-12-07T16:31:09;3.50;99.90
6357;DHT22;3211;53.452;-2.264;2022-12-07T16:33:37;3.50;99.90
6357;DHT22;3211;53.452;-2.264;2022-12-07T16:36:06;3.60;99.90
6357;DHT22;3211;53.452;-2.264;2022-12-07T16:38:35;3.50;99.90
6357;DHT22;3211;53.452;-2.264;2022-12-07T16:41:02;3.60;99.90
6357;DHT22;3211;53.452;-2.264;2022-12-07T16:43:30;3.50;99.90
6357;DHT22;3211;53.452;-2.264;2022-12-07T16:45:57;3.50;99.90
6357;DHT22;3211;53.452;-2.264;2022-12-07T16:48:24;3.30;99.90